Time;durP1;ratioP1;P1;durP2;ratioP2;P2;SDS_P1;SDS_P2;PMS_P1;PMS_P2;Temp;Humidity;BMP_temperature;BMP_pressure;BME280_temperature;BME280_humidity;BME280_pressure;Samples;Min_cycle;Max_cycle;Signal;HPM_P1;HPM_P2
2021/01/02 00:02:45;;;;;;;12.33;6.37;;;;;;;2.65;86.86;99462.63;1746798;80;21449;-74
2021/01/02 00:05:15;;;;;;;15.03;5.40;;;;;;;2.61;86.20;99461.52;1706969;82;21210;-75
2021/01/02 00:08:07;;;;;;;11.60;6.72;;;;;;;2.55;86.11;99470.72;1746263;82;21013;-75
2021/01/02 00:11:20;;;;;;;12.95;6.53;;;;;;;2.53;86.43;99473.69;1786122;80;21079;-72
2021/01/02 00:14:24;;;;;;;14.80;6.00;;;;;;;2.53;86.82;99477.75;1786648;80;20937;-73
2021/01/02 00:17:14;;;;;;;11.00;5.80;;;;;;;2.52;86.72;99480.73;1786565;80;22254;-71
2021/01/02 00:20:05;;;;;;;11.70;6.72;;;;;;;2.51;86.90;99483.16;1786524;80;21150;-70
2021/01/02 00:22:55;;;;;;;14.65;6.35;;;;;;;2.49;86.68;99486.14;1786457;80;21554;-71
2021/01/02 00:25:25;;;;;;;12.15;6.90;;;;;;;2.48;86.78;99492.63;1786523;80;20898;-72
2021/01/02 00:28:18;;;;;;;12.63;7.25;;;;;;;2.46;86.65;99491.27;1786591;80;21558;-74
2021/01/02 00:31:23;;;;;;;15.05;6.65;;;;;;;2.46;86.61;99493.44;1786477;80;21366;-72
2021/01/02 00:34:05;;;;;;;12.23;7.03;;;;;;;2.44;86.74;99495.59;1786460;80;20902;-72
2021/01/02 00:36:41;;;;;;;13.65;6.70;;;;;;;2.44;86.79;99499.66;1786384;80;21075;-73
2021/01/02 00:39:14;;;;;;;11.33;6.72;;;;;;;2.44;86.81;99513.20;1803805;79;20944;-72
2021/01/02 00:41:43;;;;;;;13.05;6.95;;;;;;;2.44;86.93;99513.20;1777723;80;21070;-73
2021/01/02 00:44:14;;;;;;;11.85;6.05;;;;;;;2.44;86.67;99517.27;1789061;79;21189;-72
2021/01/02 00:46:43;;;;;;;12.80;7.17;;;;;;;2.41;86.44;99521.86;1789070;80;20895;-71
2021/01/02 00:49:11;;;;;;;14.70;7.40;;;;;;;2.39;85.99;99521.30;1809872;79;20939;-71
2021/01/02 00:51:41;;;;;;;13.50;6.53;;;;;;;2.38;85.99;99529.16;1815919;79;22055;-71
2021/01/02 00:54:20;;;;;;;12.65;6.75;;;;;;;2.38;86.15;99532.41;1815927;79;21038;-71
2021/01/02 00:57:04;;;;;;;12.95;7.17;;;;;;;2.40;85.70;99534.31;1816091;78;22247;-70
2021/01/02 00:59:50;;;;;;;12.95;6.90;;;;;;;2.37;85.48;99537.55;1786463;79;21189;-70
2021/01/02 01:02:55;;;;;;;11.55;6.10;;;;;;;2.36;85.38;99536.73;1811142;78;20924;-72
2021/01/02 01:05:23;;;;;;;12.28;6.85;;;;;;;2.33;85.35;99538.07;1779498;79;21193;-70
2021/01/02 01:07:54;;;;;;;12.88;6.20;;;;;;;2.31;85.39;99547.56;1811182;79;21478;-70
2021/01/02 01:10:28;;;;;;;10.55;5.78;;;;;;;2.27;85.20;99549.98;1786679;79;21381;-70
2021/01/02 01:13:21;;;;;;;11.35;6.70;;;;;;;2.25;85.05;99541.30;1810997;78;20959;-70
2021/01/02 01:15:49;;;;;;;11.30;5.95;;;;;;;2.24;84.95;99548.33;1811028;79;21078;-70
2021/01/02 01:18:32;;;;;;;13.55;7.22;;;;;;;2.22;85.07;99548.59;1810939;79;21062;-74
2021/01/02 01:21:00;;;;;;;13.80;6.90;;;;;;;2.23;85.09;99550.77;1811355;78;21462;-73
2021/01/02 01:23:57;;;;;;;10.78;6.72;;;;;;;2.24;85.54;99555.92;1810988;79;21319;-74
2021/01/02 01:26:37;;;;;;;12.28;7.00;;;;;;;2.26;85.19;99554.30;1779089;80;21126;-72
2021/01/02 01:29:05;;;;;;;12.47;6.90;;;;;;;2.23;85.12;99559.70;1779096;80;21036;-73
2021/01/02 01:31:46;;;;;;;12.23;6.50;;;;;;;2.20;85.08;99561.58;1779027;80;20963;-74
2021/01/02 01:34:22;;;;;;;11.25;6.87;;;;;;;2.19;85.06;99563.19;1779097;80;20987;-74
2021/01/02 01:36:49;;;;;;;13.50;7.25;;;;;;;2.18;85.59;99569.69;1779115;80;21381;-73
2021/01/02 01:39:23;;;;;;;13.93;7.22;;;;;;;2.20;85.63;99568.35;1779077;80;21078;-74
2021/01/02 01:42:00;;;;;;;13.45;6.87;;;;;;;2.21;85.50;99569.98;1779126;80;20896;-73
2021/01/02 01:44:57;;;;;;;11.85;6.78;;;;;;;2.21;85.48;99571.88;1762183;79;22037;-74
2021/01/02 01:47:37;;;;;;;18.10;8.40;;;;;;;2.21;85.41;99571.88;1777989;79;21529;-72
2021/01/02 01:50:25;;;;;;;15.25;7.00;;;;;;;2.22;85.63;99578.39;1811078;78;21142;-72
2021/01/02 01:53:07;;;;;;;11.45;6.33;;;;;;;2.23;85.73;99577.85;1811049;78;20967;-73
2021/01/02 01:55:59;;;;;;;15.05;6.65;;;;;;;2.24;86.00;99582.19;1888689;76;23363;-70
2021/01/02 01:58:56;;;;;;;11.18;6.15;;;;;;;2.18;86.04;99586.75;1775285;80;20974;-71
2021/01/02 02:01:24;;;;;;;11.48;6.50;;;;;;;2.12;86.18;99591.03;1850002;77;21414;-72
2021/01/02 02:04:12;;;;;;;12.18;6.60;;;;;;;2.09;86.64;99596.97;1826643;77;20925;-73
2021/01/02 02:06:45;;;;;;;12.07;6.70;;;;;;;2.08;86.58;99593.98;1810540;79;21526;-73
2021/01/02 02:09:21;;;;;;;11.78;6.80;;;;;;;2.04;86.63;99602.34;1815433;79;20933;-73
2021/01/02 02:12:01;;;;;;;12.98;6.70;;;;;;;2.01;86.54;99598.80;1816731;79;21048;-72
2021/01/02 02:15:00;;;;;;;11.65;7.30;;;;;;;2.01;86.61;99606.92;1872334;76;27887;-71
2021/01/02 02:17:41;;;;;;;11.67;6.23;;;;;;;1.98;86.70;99600.95;1775627;80;21014;-71
2021/01/02 02:20:19;;;;;;;11.28;5.78;;;;;;;2.05;86.48;99599.38;1820041;77;23245;-72
2021/01/02 02:22:46;;;;;;;11.35;6.00;;;;;;;1.97;86.05;99608.79;1755685;81;21477;-71
2021/01/02 02:25:16;;;;;;;12.25;6.22;;;;;;;1.93;86.11;99617.14;1743312;82;20994;-71
2021/01/02 02:27:44;;;;;;;11.22;6.50;;;;;;;1.91;86.09;99623.36;1722936;83;20921;-71
2021/01/02 02:30:17;;;;;;;12.82;6.40;;;;;;;1.89;85.94;99626.04;1702919;82;20997;-72
2021/01/02 02:32:47;;;;;;;11.12;5.97;;;;;;;1.87;85.49;99627.65;1727039;81;20970;-73
2021/01/02 02:35:19;;;;;;;11.80;5.83;;;;;;;1.83;84.28;99629.77;1753440;81;20935;-73
2021/01/02 02:37:51;;;;;;;;;;;;;;;1.77;84.07;99641.62;1756044;81;21376;-72
2021/01/02 02:40:21;;;;;;;10.00;5.33;;;;;;;1.70;83.92;99635.09;1753457;81;20722;-73
2021/01/02 02:43:01;;;;;;;9.83;5.53;;;;;;;1.65;84.09;99643.97;1719692;81;21627;-72
2021/01/02 02:45:33;;;;;;;9.75;5.83;;;;;;;1.62;83.90;99642.31;1743450;82;21021;-75
2021/01/02 02:48:04;;;;;;;11.03;5.85;;;;;;;1.57;84.02;99646.31;1743721;81;20998;-73
2021/01/02 02:50:32;;;;;;;9.48;5.55;;;;;;;1.52;83.94;99640.31;1743499;81;21559;-73
2021/01/02 02:53:12;;;;;;;16.50;6.80;;;;;;;1.47;84.00;99644.84;1743529;82;21136;-73
2021/01/02 02:55:42;;;;;;;7.95;5.28;;;;;;;1.42;84.19;99652.91;1743534;82;20950;-72
2021/01/02 02:58:11;;;;;;;11.28;6.40;;;;;;;1.38;84.48;99653.13;1743513;81;21006;-72
2021/01/02 03:00:39;;;;;;;12.47;6.10;;;;;;;1.36;84.63;99652.03;1743486;82;21206;-71
2021/01/02 03:03:11;;;;;;;14.60;7.42;;;;;;;1.33;84.78;99656.05;1714608;83;23567;-72
2021/01/02 03:05:40;;;;;;;11.12;6.28;;;;;;;1.31;84.84;99658.20;1737844;82;21614;-72
2021/01/02 03:08:08;;;;;;;11.60;6.40;;;;;;;1.27;84.89;99661.12;1743620;82;21485;-71
2021/01/02 03:10:36;;;;;;;9.73;6.03;;;;;;;1.25;85.05;99671.38;1716202;82;21322;-71
2021/01/02 03:13:04;;;;;;;10.40;6.15;;;;;;;1.23;85.06;99673.51;1713889;83;21084;-71
2021/01/02 03:15:42;;;;;;;12.50;6.33;;;;;;;1.23;85.23;99675.39;1743520;82;21871;-70
2021/01/02 03:18:10;;;;;;;12.95;6.72;;;;;;;1.24;85.27;99680.55;1713689;83;21021;-69
2021/01/02 03:20:38;;;;;;;19.12;7.75;;;;;;;1.22;85.15;99686.75;1741918;82;21440;-70
2021/01/02 03:23:06;;;;;;;10.55;6.08;;;;;;;1.21;85.21;99687.00;1712266;83;20936;-71
2021/01/02 03:25:34;;;;;;;11.57;6.65;;;;;;;1.19;85.03;99693.19;1741954;82;20959;-71
2021/01/02 03:28:03;;;;;;;14.75;6.60;;;;;;;1.17;85.34;99697.50;1712684;83;22256;-76
2021/01/02 03:30:31;;;;;;;14.73;6.58;;;;;;;1.15;85.25;99691.55;1741642;82;21592;-76
2021/01/02 03:32:59;;;;;;;11.88;6.47;;;;;;;1.15;85.17;99685.33;1711904;83;21607;-72
2021/01/02 03:35:27;;;;;;;12.33;6.90;;;;;;;1.13;85.23;99690.98;1741383;82;20932;-72
2021/01/02 03:37:55;;;;;;;12.47;7.37;;;;;;;1.11;85.26;99692.30;1712357;83;20931;-72
2021/01/02 03:40:23;;;;;;;13.08;7.20;;;;;;;1.11;85.42;99699.88;1694886;84;21170;-75
2021/01/02 03:42:51;;;;;;;12.13;6.85;;;;;;;1.10;85.40;99700.95;1694847;84;21026;-77
2021/01/02 03:45:18;;;;;;;10.95;6.22;;;;;;;1.06;85.19;99705.22;1705167;83;21597;-76
2021/01/02 03:47:47;;;;;;;13.28;7.40;;;;;;;1.04;85.19;99714.11;1711192;83;20947;-75
2021/01/02 03:50:15;;;;;;;11.55;6.50;;;;;;;1.01;85.08;99725.42;1696648;84;20955;-75
2021/01/02 03:52:44;;;;;;;13.55;7.90;;;;;;;0.98;85.21;99733.50;1695627;84;22428;-74
2021/01/02 03:55:13;;;;;;;14.28;7.22;;;;;;;0.96;84.80;99742.92;1695243;84;21592;-73
2021/01/02 03:57:41;;;;;;;12.65;6.65;;;;;;;0.90;84.55;99743.38;1704938;83;21085;-71
2021/01/02 04:00:11;;;;;;;13.50;7.00;;;;;;;0.86;84.40;99740.06;1699802;83;21892;-70
2021/01/02 04:02:39;;;;;;;14.85;7.50;;;;;;;0.81;84.51;99757.55;1724428;83;21152;-71
2021/01/02 04:05:09;;;;;;;14.68;7.58;;;;;;;0.75;84.52;99752.59;1713503;82;22162;-70
2021/01/02 04:07:37;;;;;;;16.00;7.85;;;;;;;0.72;84.53;99759.03;1703308;83;20920;-69
2021/01/02 04:10:08;;;;;;;15.35;8.20;;;;;;;0.66;84.05;99757.59;1711990;83;20912;-70
2021/01/02 04:12:36;;;;;;;14.35;7.72;;;;;;;0.58;84.25;99767.98;1722620;83;21054;-71
2021/01/02 04:15:06;;;;;;;15.80;7.90;;;;;;;0.53;84.59;99763.88;1713615;83;21079;-70
2021/01/02 04:17:34;;;;;;;17.12;8.20;;;;;;;0.51;84.77;99761.42;1721007;83;21521;-70
2021/01/02 04:22:44;;;;;;;14.78;8.70;;;;;;;0.49;85.62;99768.13;1681956;83;21137;-71
2021/01/02 04:25:12;;;;;;;16.50;8.53;;;;;;;0.49;85.42;99774.36;1731130;83;20921;-72
2021/01/02 04:27:39;;;;;;;16.97;9.25;;;;;;;0.48;85.42;99787.58;1731649;82;21021;-71
2021/01/02 04:30:08;;;;;;;18.10;9.15;;;;;;;0.48;85.43;99786.22;1730134;83;23529;-72
2021/01/02 04:32:36;;;;;;;15.10;9.18;;;;;;;0.48;85.63;99788.92;1708277;83;21171;-72
2021/01/02 04:37:44;;;;;;;19.25;8.73;;;;;;;0.52;85.94;99800.06;1762963;81;20942;-71
2021/01/02 04:40:14;;;;;;;14.53;8.48;;;;;;;0.49;85.96;99793.27;1762951;81;21469;-72
2021/01/02 04:42:42;;;;;;;19.15;8.85;;;;;;;0.50;86.35;99796.25;1757871;81;21378;-71
2021/01/02 04:45:11;;;;;;;21.62;9.63;;;;;;;0.53;86.14;99799.82;1742454;81;21591;-71
2021/01/02 04:47:39;;;;;;;17.17;9.25;;;;;;;0.53;86.31;99793.06;1732009;83;21112;-71
2021/01/02 04:50:08;;;;;;;18.73;9.25;;;;;;;0.53;86.32;99798.47;1731236;83;20958;-71
2021/01/02 04:52:36;;;;;;;15.80;8.25;;;;;;;0.56;86.33;99800.69;1747780;81;21168;-71
2021/01/02 04:55:05;;;;;;;22.27;9.93;;;;;;;0.56;86.32;99816.89;1759483;81;21441;-71
2021/01/02 04:57:38;;;;;;;16.30;9.10;;;;;;;0.58;86.38;99818.78;1762908;81;20973;-71
2021/01/02 05:00:11;;;;;;;19.50;9.43;;;;;;;0.59;86.35;99823.13;1762971;81;21472;-72
2021/01/02 05:02:38;;;;;;;21.17;9.75;;;;;;;0.61;86.45;99822.89;1762948;81;21029;-72
2021/01/02 05:05:08;;;;;;;15.85;8.73;;;;;;;0.63;86.53;99824.81;1763403;81;21451;-72
2021/01/02 05:07:35;;;;;;;18.48;9.13;;;;;;;0.65;86.60;99830.79;1737978;81;22289;-72
2021/01/02 05:10:04;;;;;;;17.40;8.83;;;;;;;0.66;86.61;99831.90;1763423;81;21059;-74
2021/01/02 05:12:34;;;;;;;21.02;9.18;;;;;;;0.68;86.59;99826.25;1763425;80;21094;-74
2021/01/02 05:15:11;;;;;;;14.35;7.97;;;;;;;0.71;86.55;99831.70;1764242;81;20903;-74
2021/01/02 05:17:41;;;;;;;19.05;8.98;;;;;;;0.73;86.50;99837.67;1763783;81;20961;-74
2021/01/02 05:20:13;;;;;;;15.93;8.13;;;;;;;0.74;86.58;99839.31;1763068;81;21411;-74
2021/01/02 05:22:43;;;;;;;16.52;8.48;;;;;;;0.76;86.64;99840.71;1761321;81;21101;-74
2021/01/02 05:25:18;;;;;;;23.07;9.88;;;;;;;0.76;86.67;99848.00;1757009;81;21567;-73
2021/01/02 05:27:51;;;;;;;15.50;8.60;;;;;;;0.78;86.65;99848.58;1756473;81;21510;-72
2021/01/02 05:30:25;;;;;;;17.35;8.68;;;;;;;0.79;86.67;99851.03;1757047;81;21091;-74
2021/01/02 05:33:08;;;;;;;17.20;8.63;;;;;;;0.83;86.53;99856.77;1757154;81;22109;-73
2021/01/02 05:35:43;;;;;;;;;;;;;;;0.82;86.50;99856.48;1759589;81;21653;-74
2021/01/02 05:38:25;;;;;;;17.30;8.53;;;;;;;0.83;86.85;99855.42;1757073;81;20106;-74
2021/01/02 05:41:00;;;;;;;17.37;8.63;;;;;;;0.85;86.87;99865.45;1757154;81;21047;-74
2021/01/02 05:43:29;;;;;;;15.32;7.83;;;;;;;0.88;86.78;99873.08;1757160;81;21558;-72
2021/01/02 05:45:56;;;;;;;20.32;8.13;;;;;;;0.89;86.86;99874.72;1756490;81;21200;-72
2021/01/02 05:48:27;;;;;;;16.82;8.35;;;;;;;0.92;86.83;99876.94;1756917;81;20945;-74
2021/01/02 05:50:58;;;;;;;21.07;9.30;;;;;;;0.94;86.65;99875.62;1757048;81;21464;-72
2021/01/02 05:53:32;;;;;;;14.78;8.13;;;;;;;0.98;86.78;99880.01;1757163;81;21472;-72
2021/01/02 05:56:13;;;;;;;16.97;7.78;;;;;;;1.01;86.74;99880.88;1757054;81;20973;-72
2021/01/02 05:58:42;;;;;;;19.12;8.75;;;;;;;1.04;86.86;99883.62;1757070;81;21511;-73
2021/01/02 06:01:14;;;;;;;14.83;7.70;;;;;;;1.07;86.65;99893.41;1756968;81;21000;-73
2021/01/02 06:03:44;;;;;;;16.60;8.38;;;;;;;1.06;86.36;99883.66;1748221;81;20996;-73
2021/01/02 06:06:16;;;;;;;18.65;7.95;;;;;;;1.08;86.53;99891.53;1744786;82;21491;-73
2021/01/02 06:08:50;;;;;;;17.57;8.73;;;;;;;1.09;86.49;99898.58;1752203;81;20905;-76
2021/01/02 06:11:22;;;;;;;17.62;9.23;;;;;;;1.11;86.41;99896.45;1752668;81;21163;-74
2021/01/02 06:13:52;;;;;;;20.85;10.30;;;;;;;1.11;86.33;99905.91;1751403;81;20937;-74
2021/01/02 06:16:21;;;;;;;15.90;8.10;;;;;;;1.11;86.33;99905.91;1757045;81;20976;-75
2021/01/02 06:18:49;;;;;;;15.90;8.25;;;;;;;1.13;86.41;99914.06;1757010;81;21834;-73
2021/01/02 06:21:18;;;;;;;17.82;9.30;;;;;;;1.15;86.45;99912.47;1756928;81;20898;-74
2021/01/02 06:23:47;;;;;;;20.17;9.68;;;;;;;1.17;86.43;99919.23;1757029;81;21451;-72
2021/01/02 06:26:16;;;;;;;16.27;9.38;;;;;;;1.18;86.61;99923.59;1756942;81;20898;-76
2021/01/02 06:28:45;;;;;;;21.82;11.08;;;;;;;1.21;86.73;99923.63;1750417;81;21131;-76
2021/01/02 06:31:15;;;;;;;18.82;9.68;;;;;;;1.26;86.88;99929.12;1744438;82;21522;-77
2021/01/02 06:33:48;;;;;;;16.50;8.25;;;;;;;1.29;86.69;99928.09;1740191;82;21072;-73
2021/01/02 06:36:36;;;;;;;16.57;8.10;;;;;;;1.29;86.43;99926.75;1746091;81;21390;-77
2021/01/02 06:39:19;;;;;;;20.65;9.70;;;;;;;1.30;86.80;99932.97;1767690;81;21115;-72
2021/01/02 06:41:47;;;;;;;20.35;9.58;;;;;;;1.33;86.92;99935.19;1719054;82;21163;-72
2021/01/02 06:44:40;;;;;;;20.80;9.25;;;;;;;1.40;87.07;99940.44;1737367;81;21055;-75
2021/01/02 06:47:23;;;;;;;22.60;9.60;;;;;;;1.41;86.62;99941.55;1731984;82;21133;-73
2021/01/02 06:49:52;;;;;;;19.23;9.75;;;;;;;1.43;86.55;99949.41;1712257;82;21228;-76
2021/01/02 06:52:32;;;;;;;22.42;10.82;;;;;;;1.43;86.42;99947.53;1711456;82;21012;-73
2021/01/02 06:55:23;;;;;;;20.72;10.95;;;;;;;1.44;86.47;99953.77;1737509;82;20936;-71
2021/01/02 06:57:51;;;;;;;17.17;8.43;;;;;;;1.47;86.36;99961.39;1737559;82;21146;-70
2021/01/02 07:00:27;;;;;;;20.37;9.30;;;;;;;1.49;86.25;99964.67;1737388;82;21562;-71
2021/01/02 07:02:56;;;;;;;22.40;10.93;;;;;;;1.50;86.32;99961.72;1737428;82;21114;-70
2021/01/02 07:05:48;;;;;;;23.42;10.40;;;;;;;1.53;86.32;99973.40;1737611;82;21067;-72
2021/01/02 07:08:42;;;;;;;16.30;8.88;;;;;;;1.57;86.29;99971.02;1748963;81;21090;-70
2021/01/02 07:11:42;;;;;;;20.72;10.20;;;;;;;1.59;85.87;99970.24;1751347;81;21129;-72
2021/01/02 07:14:22;;;;;;;21.52;10.85;;;;;;;1.57;85.85;99976.44;1748323;81;21130;-76
2021/01/02 07:16:58;;;;;;;25.05;11.95;;;;;;;1.57;86.02;99983.20;1738063;81;21162;-70
2021/01/02 07:19:46;;;;;;;22.65;10.20;;;;;;;1.59;86.11;99983.77;1737595;82;20999;-73
2021/01/02 07:22:20;;;;;;;19.85;10.45;;;;;;;1.62;86.63;99985.45;1737417;82;20935;-73
2021/01/02 07:25:07;;;;;;;16.50;9.70;;;;;;;1.68;86.51;99985.53;1737578;82;21624;-83
2021/01/02 07:27:40;;;;;;;20.02;9.85;;;;;;;1.72;86.30;99988.86;1737695;82;21078;-77
2021/01/02 07:30:12;;;;;;;;;;;;;;;1.74;85.98;99983.16;1740179;82;21364;-70
2021/01/02 07:32:43;;;;;;;25.65;11.88;;;;;;;1.69;85.84;99988.00;1746921;81;20133;-74
2021/01/02 07:35:14;;;;;;;18.10;9.45;;;;;;;1.69;86.22;99994.77;1768133;81;21110;-74
2021/01/02 07:37:44;;;;;;;;;;;;;;;1.74;86.37;99993.46;1757686;81;21076;-71
2021/01/02 07:40:16;;;;;;;21.95;9.03;;;;;;;1.78;86.39;99998.66;1745864;82;20142;-71
2021/01/02 07:42:51;;;;;;;17.30;8.33;;;;;;;1.84;86.21;100011.22;1746053;82;22112;-71
2021/01/02 07:45:25;;;;;;;21.25;10.25;;;;;;;1.84;86.03;100008.50;1745906;82;21128;-69
2021/01/02 07:47:58;;;;;;;21.73;10.50;;;;;;;1.84;86.25;100011.22;1745968;82;21452;-68
2021/01/02 07:50:29;;;;;;;21.23;10.60;;;;;;;1.84;86.28;100013.10;1745770;81;21060;-69
2021/01/02 07:53:02;;;;;;;20.23;9.50;;;;;;;1.84;86.32;100011.22;1745641;82;21051;-69
2021/01/02 07:55:31;;;;;;;22.70;11.65;;;;;;;1.87;86.47;100019.38;1745769;82;21375;-73
2021/01/02 07:58:03;;;;;;;30.55;13.58;;;;;;;1.89;86.55;100023.48;1736487;81;21004;-69
2021/01/02 08:00:30;;;;;;;19.52;11.50;;;;;;;1.92;86.86;100028.40;1736332;82;21134;-70
2021/01/02 08:03:05;;;;;;;19.55;9.85;;;;;;;1.96;86.71;100034.14;1736303;82;21067;-76
2021/01/02 08:05:32;;;;;;;19.87;9.83;;;;;;;1.91;86.35;100034.88;1745864;82;21437;-71
2021/01/02 08:08:01;;;;;;;21.93;10.38;;;;;;;1.86;86.35;100032.63;1745818;82;21201;-71
2021/01/02 08:10:30;;;;;;;21.05;10.50;;;;;;;1.87;86.78;100039.15;1745693;82;21103;-72
2021/01/02 08:13:00;;;;;;;25.35;11.35;;;;;;;1.91;86.74;100038.13;1745795;81;20930;-70
2021/01/02 08:15:33;;;;;;;21.90;10.32;;;;;;;1.97;86.79;100042.02;1745842;82;20981;-71
2021/01/02 08:18:09;;;;;;;19.30;10.18;;;;;;;2.04;86.77;100041.03;1745732;82;21001;-73
2021/01/02 08:20:37;;;;;;;15.93;9.08;;;;;;;2.13;86.84;100047.67;1745658;82;21487;-70
2021/01/02 08:23:18;;;;;;;18.92;9.48;;;;;;;2.22;86.67;100051.06;1745047;82;21056;-71
2021/01/02 08:25:45;;;;;;;19.12;9.53;;;;;;;2.30;86.36;100056.06;1745847;82;21041;-72
2021/01/02 08:28:13;;;;;;;21.87;10.53;;;;;;;2.35;86.04;100060.70;1716603;82;21032;-71
2021/01/02 08:30:41;;;;;;;21.15;10.60;;;;;;;2.36;85.92;100064.23;1745807;82;21069;-70
2021/01/02 08:33:10;;;;;;;20.70;10.53;;;;;;;2.33;85.80;100069.61;1745829;81;21548;-70
2021/01/02 08:35:42;;;;;;;29.82;15.48;;;;;;;2.28;85.57;100070.92;1717294;82;21547;-79
2021/01/02 08:38:12;;;;;;;23.98;12.55;;;;;;;2.21;85.41;100072.98;1745713;81;21112;-70
2021/01/02 08:43:26;;;;;;;34.00;20.68;;;;;;;2.15;85.86;100086.16;1871431;76;22691;-83
2021/01/02 08:46:03;;;;;;;26.27;13.90;;;;;;;2.08;85.84;100080.91;1816536;79;20929;-73
2021/01/02 08:48:31;;;;;;;20.57;11.53;;;;;;;2.06;85.70;100085.75;1816536;79;21349;-79
2021/01/02 08:50:59;;;;;;;20.68;10.15;;;;;;;2.04;85.72;100083.00;1816567;78;21589;-78
2021/01/02 08:53:33;;;;;;;21.27;10.08;;;;;;;1.99;85.73;100082.39;1816419;79;21000;-70
2021/01/02 08:56:27;;;;;;;19.50;10.30;;;;;;;1.94;85.85;100082.30;1828118;77;21566;-71
2021/01/02 08:58:54;;;;;;;18.52;10.08;;;;;;;1.86;85.76;100090.84;1829901;77;20895;-70
2021/01/02 09:01:22;;;;;;;20.08;10.93;;;;;;;1.75;86.03;100076.30;1838959;77;21361;-74
2021/01/02 09:03:50;;;;;;;21.57;11.12;;;;;;;1.67;86.40;100063.73;1820610;77;20979;-71
2021/01/02 09:06:21;;;;;;;24.52;11.18;;;;;;;1.59;86.75;100075.25;1816497;79;20926;-71
2021/01/02 09:09:08;;;;;;;22.60;11.60;;;;;;;1.61;87.49;100078.53;1816466;79;21035;-70
2021/01/02 09:11:50;;;;;;;22.90;11.55;;;;;;;1.68;88.00;100077.56;1813005;79;21050;-71
2021/01/02 09:14:18;;;;;;;19.82;10.98;;;;;;;1.81;88.08;100079.38;1810669;79;21139;-72
2021/01/02 09:17:00;;;;;;;25.88;11.78;;;;;;;1.87;87.85;100078.94;1810426;79;20926;-72
2021/01/02 09:19:28;;;;;;;20.65;11.10;;;;;;;1.89;87.61;100084.93;1829250;77;21559;-75
2021/01/02 09:21:57;;;;;;;20.50;11.48;;;;;;;1.96;87.69;100092.36;1849840;77;21623;-73
2021/01/02 09:24:27;;;;;;;21.17;10.72;;;;;;;2.03;87.04;100096.26;1844218;77;21025;-71
2021/01/02 09:26:54;;;;;;;20.85;11.03;;;;;;;2.03;86.60;100097.61;1835036;77;21161;-69
2021/01/02 09:29:22;;;;;;;19.15;10.05;;;;;;;2.08;87.04;100101.75;1824749;76;20906;-72
2021/01/02 09:31:50;;;;;;;19.73;10.63;;;;;;;2.33;87.12;100100.77;1816477;76;21060;-71
2021/01/02 09:34:20;;;;;;;17.45;9.35;;;;;;;2.56;85.93;100102.47;1775142;80;21115;-73
2021/01/02 09:36:52;;;;;;;19.27;10.10;;;;;;;2.68;84.92;100101.83;1743157;82;21041;-71
2021/01/02 09:39:23;;;;;;;17.20;9.10;;;;;;;2.69;84.36;100099.94;1775280;79;21811;-70
2021/01/02 09:41:50;;;;;;;19.02;10.00;;;;;;;2.69;84.24;100104.00;1758985;79;20998;-72
2021/01/02 09:44:18;;;;;;;17.30;9.48;;;;;;;3.07;84.79;100099.05;1765504;80;21551;-72
2021/01/02 09:46:49;;;;;;;20.08;9.08;;;;;;;3.56;82.86;100089.80;1761369;81;21041;-82
2021/01/02 09:49:17;;;;;;;20.40;9.80;;;;;;;3.97;80.74;100082.03;1762044;81;21069;-74
2021/01/02 09:51:44;;;;;;;20.20;9.70;;;;;;;4.49;80.55;100084.02;1786961;80;21397;-71
2021/01/02 09:54:12;;;;;;;19.82;10.32;;;;;;;4.86;76.08;100084.73;1733061;80;21204;-73
2021/01/02 09:56:46;;;;;;;34.10;13.78;;;;;;;4.62;75.63;100090.35;1761089;80;20987;-72
2021/01/02 09:59:15;;;;;;;20.75;10.95;;;;;;;4.28;76.31;100091.21;1761059;81;21074;-76
2021/01/02 10:01:43;;;;;;;17.25;10.20;;;;;;;4.14;77.08;100090.84;1761245;80;21571;-80
2021/01/02 10:04:10;;;;;;;19.87;9.78;;;;;;;4.04;77.59;100086.71;1761092;80;22287;-75
2021/01/02 10:06:45;;;;;;;18.92;9.85;;;;;;;3.90;77.58;100083.61;1760973;81;21024;-72
2021/01/02 10:09:13;;;;;;;20.57;10.95;;;;;;;4.02;78.42;100086.15;1760977;81;20929;-70
2021/01/02 10:11:43;;;;;;;18.00;9.30;;;;;;;4.51;78.77;100088.11;1760893;81;21043;-70
2021/01/02 10:14:11;;;;;;;20.25;10.68;;;;;;;5.17;77.04;100093.03;1761014;81;21111;-67
2021/01/02 10:16:38;;;;;;;16.95;9.25;;;;;;;5.48;74.22;100088.47;1760606;81;21356;-74
2021/01/02 10:19:09;;;;;;;16.93;9.25;;;;;;;5.36;73.18;100102.87;1760931;81;21041;-72
2021/01/02 10:21:36;;;;;;;18.50;8.50;;;;;;;5.36;73.18;100102.87;1760863;81;21614;-72
2021/01/02 10:24:07;;;;;;;17.48;8.75;;;;;;;5.59;73.39;100096.94;1762827;80;21135;-71
2021/01/02 10:26:34;;;;;;;16.45;8.95;;;;;;;6.03;70.82;100097.27;1731208;80;21465;-71
2021/01/02 10:29:04;;;;;;;15.98;8.73;;;;;;;5.52;70.33;100095.84;1766182;80;21201;-72
2021/01/02 10:31:34;;;;;;;;;;;;;;;5.52;70.33;100095.84;1736988;81;21031;-72
2021/01/02 10:34:01;;;;;;;18.77;9.28;;;;;;;4.98;71.43;100107.65;1761158;81;20153;-72
2021/01/02 10:36:29;;;;;;;18.27;10.00;;;;;;;4.62;73.27;100103.95;1761103;81;21019;-72
2021/01/02 10:38:56;;;;;;;17.20;10.00;;;;;;;4.52;74.52;100097.91;1761056;81;21019;-72
2021/01/02 10:41:24;;;;;;;17.17;9.45;;;;;;;4.67;74.67;100101.77;1765676;80;21253;-73
2021/01/02 10:43:51;;;;;;;18.05;9.68;;;;;;;5.10;74.80;100097.36;1771046;80;21042;-72
2021/01/02 10:46:19;;;;;;;16.48;9.55;;;;;;;5.63;74.25;100092.05;1757791;81;21015;-72
2021/01/02 10:48:46;;;;;;;16.15;8.80;;;;;;;6.17;71.39;100097.00;1815553;79;21602;-72
2021/01/02 10:51:16;;;;;;;15.98;9.35;;;;;;;6.12;69.34;100101.64;1815677;79;20944;-72
2021/01/02 10:53:44;;;;;;;18.35;10.32;;;;;;;5.57;69.83;100093.12;1815514;79;21202;-72
2021/01/02 10:56:14;;;;;;;18.95;10.80;;;;;;;5.21;71.75;100100.91;1820935;77;21050;-72
2021/01/02 10:58:42;;;;;;;20.20;11.30;;;;;;;5.28;72.94;100102.84;1820979;78;21065;-72
2021/01/02 11:01:09;;;;;;;17.67;10.08;;;;;;;5.80;72.06;100104.58;1821127;78;21552;-72
2021/01/02 11:03:37;;;;;;;19.37;10.53;;;;;;;6.18;70.39;100097.28;1820400;78;21115;-73
2021/01/02 11:06:09;;;;;;;42.73;14.80;;;;;;;6.20;68.81;100096.45;1821075;78;21322;-72
2021/01/02 11:08:37;;;;;;;111.42;31.52;;;;;;;6.25;70.41;100092.91;1820769;78;21544;-72
2021/01/02 11:11:05;;;;;;;116.55;38.92;;;;;;;6.77;68.50;100108.08;1821350;78;21544;-72
2021/01/02 11:13:33;;;;;;;19.95;10.32;;;;;;;7.05;67.01;100099.78;1821319;78;20922;-72
2021/01/02 11:16:00;;;;;;;22.35;12.53;;;;;;;7.27;66.48;100109.24;1821354;78;20915;-72
2021/01/02 11:18:29;;;;;;;20.90;11.68;;;;;;;7.33;65.93;100113.31;1821319;78;21770;-73
2021/01/02 11:20:57;;;;;;;22.52;12.18;;;;;;;7.09;65.36;100109.86;1821370;78;21568;-72
2021/01/02 11:23:25;;;;;;;26.05;13.38;;;;;;;6.68;65.93;100109.73;1821110;78;20883;-72
2021/01/02 11:25:52;;;;;;;20.60;12.43;;;;;;;6.42;67.23;100100.77;1821322;77;20930;-73
2021/01/02 11:28:20;;;;;;;15.95;10.38;;;;;;;6.36;68.05;100105.42;1818779;78;20923;-72
2021/01/02 11:30:47;;;;;;;20.23;11.70;;;;;;;6.65;68.49;100100.73;1815848;79;21126;-73
2021/01/02 11:33:15;;;;;;;20.85;11.48;;;;;;;6.96;65.95;100100.90;1815822;79;21073;-72
2021/01/02 11:35:42;;;;;;;24.52;12.18;;;;;;;7.00;66.13;100096.52;1815895;79;21520;-73
2021/01/02 11:38:10;;;;;;;22.13;13.25;;;;;;;7.12;66.02;100107.94;1780534;79;21601;-72
2021/01/02 11:40:37;;;;;;;20.70;13.20;;;;;;;7.11;65.73;100104.94;1830965;77;21074;-72
2021/01/02 11:43:04;;;;;;;20.90;12.95;;;;;;;7.19;65.73;100106.27;1831633;77;22436;-74
2021/01/02 11:45:32;;;;;;;22.52;13.58;;;;;;;7.00;65.16;100104.70;1848513;77;20974;-74
2021/01/02 11:47:59;;;;;;;21.60;13.30;;;;;;;6.57;66.03;100109.75;1849045;77;20962;-72
2021/01/02 11:50:27;;;;;;;23.25;13.22;;;;;;;6.12;66.82;100115.27;1848976;77;21013;-72
2021/01/02 11:52:55;;;;;;;23.50;12.98;;;;;;;6.07;68.38;100114.72;1849194;77;20919;-69
2021/01/02 11:55:22;;;;;;;21.85;12.68;;;;;;;6.21;68.13;100107.63;1849046;77;21800;-67
2021/01/02 11:57:49;;;;;;;24.75;13.80;;;;;;;5.96;67.47;100114.44;1849100;77;21005;-69
2021/01/02 12:00:20;;;;;;;22.75;12.82;;;;;;;5.53;68.85;100123.89;1848762;77;20950;-67
2021/01/02 12:02:47;;;;;;;19.87;11.57;;;;;;;5.21;70.06;100124.87;1806898;77;21531;-68
2021/01/02 12:05:17;;;;;;;26.90;14.33;;;;;;;5.03;71.15;100125.36;1820830;77;21121;-71